Qway, New Mexico
Current Conditions -  °F | °C
As of 4:53 PM on Friday 24 Oct 2014 (Local Time) from KTCC Reporting Station
Clear Clear  
Wind Chill: 86°   Ceiling: Unl
Heat Index: 86°   Visibility: 10mi
Dew Point: 33°   Wind: 13mph
Humidity: 15%   Direction: 200°SSW
Pressure: 30.09"   Gusts: NA
Location:  34.9519°N, 103.772°W
Report Text: KTCC 242253Z AUTO 20011KT 10SM CLR 30/01 A3009 RMK AO2 SLP139 T03000006
Loading
Personal Weather Stations






























Interactive Weather Map
Tropical Storm Tracking
New forecast layout! Learn more

10-Day Weather Forecast

Advertisements
Track Severe Weather on mobile